Disclaimer

Please do not use the information listed here in-flight or in-navigation, as they are not provided to us by the airports but are provided by volunteers, so they might be outdated.

Search


Regions


Airport information page

Radio informations:
GILLOT TWR - 118.4 MHz
GILLOT GND - 121.9 MHz
Automatic Terminal Information Service (ATIS) - 126.8 MHz
GILLOT APP - 119.4 MHz

Airport informations:
Latitude: 20° 53' 13.56" S
Longitude: 055° 30' 37.11" E
Elevation: 66 feet - 20 meters
Operating hours: N/A
Operating agency: Military-civil joint use airport
Timezone: UTC+4
Fuel: Jet A1+, Jet A1 with icing inhibitor.

100/130 octane gasoline, leaded, MIL-L-5572F (GREEN)

Runway information:
12/30 - 10499 x 148 feet< - >3200 x 45 meters
14/32 - 8760 x 148 feet< - >2670 x 45 meters

Recent METARs:
FMEE 160300Z AUTO 14016KT 8000 -RA FEW021/// BKN054/// OVC068/// ///CB 23/21 Q1017 TEMPO 4500 SHRA BECMG 10020G30KT FEW030 SCT045
FMEE 160330Z AUTO 15017KT 9999 -RA FEW042/// BKN068/// OVC080/// ///CB 24/21 Q1017 BECMG 10020G30KT FEW030 SCT045
FMEE 160400Z AUTO 16013KT 9999 BKN064/// BKN078/// OVC090/// ///TCU 26/21 Q1017 BECMG 10020G30KT FEW030 SCT045

Airport on the map: